Merino, Colorado
Current Conditions -  °F | °C
As of 1:50 PM on Sunday 21 Dec 2014 (Local Time) from KSTK Reporting Station
Overcast Overcast  
Wind Chill: 33°   Ceiling: 6500
Heat Index: 37°   Visibility: 10mi
Dew Point: 34°   Wind: 6mph
Humidity: 87%   Direction: 190°S
Pressure: 29.53"   Gusts: NA
Location:  40.48°N, 103.35°W
Report Text: KSTK 212050Z AUTO 19005KT 10SM BKN065 OVC080 03/01 A2953 RMK AO2
Loading
Personal Weather Stations






























Interactive Weather Map New forecast layout! Learn more

10-Day Weather Forecast

Advertisements
Track Severe Weather on mobile